Time;durP1;ratioP1;P1;durP2;ratioP2;P2;SDS_P1;SDS_P2;PMS_P1;PMS_P2;Temp;Humidity;BMP_temperature;BMP_pressure;BME280_temperature;BME280_humidity;BME280_pressure;Samples;Min_cycle;Max_cycle;Signal;HPM_P1;HPM_P2
2022/02/08 07:00:11;;;;;;;21.75;3.80;;;;;;;;;;5965530;23;21006;-87
2022/02/08 07:02:38;;;;;;;40.97;4.00;;;;;;;;;;4931761;28;20145;-85
2022/02/08 07:05:05;;;;;;;9.98;3.00;;;;;;;;;;4932178;28;20043;-84
2022/02/08 07:07:31;;;;;;;12.07;2.95;;;;;;;;;;4930062;29;20428;-86
2022/02/08 07:09:58;;;;;;;8.57;3.17;;;;;;;;;;4948330;28;20047;-86
2022/02/08 07:12:24;;;;;;;33.97;5.45;;;;;;;;;;4931414;28;20039;-86
2022/02/08 07:14:51;;;;;;;52.80;6.55;;;;;;;;;;4930908;28;20103;-86
2022/02/08 07:17:18;;;;;;;65.15;5.82;;;;;;;;;;4931932;29;20047;-85
2022/02/08 07:19:45;;;;;;;43.28;6.25;;;;;;;;;;4930866;28;20068;-87
2022/02/08 07:22:11;;;;;;;81.22;8.32;;;;;;;;;;4931434;28;20059;-87
2022/02/08 07:24:38;;;;;;;82.10;7.60;;;;;;;;;;4931760;29;20103;-87
2022/02/08 07:27:07;;;;;;;118.10;8.57;;;;;;;;;;4930384;28;20389;-85
2022/02/08 07:29:38;;;;;;;218.18;9.90;;;;;;;;;;4925065;29;20060;-86
2022/02/08 07:32:06;;;;;;;304.85;13.45;;;;;;;;;;4929535;28;20047;-86
2022/02/08 07:34:41;;;;;;;287.85;10.80;;;;;;;;;;4929731;28;20056;-86
2022/02/08 07:39:42;;;;;;;335.52;8.82;;;;;;;;;;4932962;28;20103;-86
2022/02/08 07:42:10;;;;;;;343.35;10.57;;;;;;;;;;4928985;29;20060;-86
2022/02/08 07:44:36;;;;;;;336.13;12.63;;;;;;;;;;4930846;29;20067;-87
2022/02/08 07:47:03;;;;;;;283.27;12.30;;;;;;;;;;4929898;28;20043;-86
2022/02/08 07:49:32;;;;;;;327.10;13.73;;;;;;;;;;4928147;29;20584;-87
2022/02/08 07:51:59;;;;;;;240.15;12.50;;;;;;;;;;4932089;28;20062;-85
2022/02/08 07:54:26;;;;;;;177.80;12.88;;;;;;;;;;4930339;29;20052;-86
2022/02/08 07:56:52;;;;;;;136.57;12.57;;;;;;;;;;4929520;28;20048;-86
2022/02/08 07:59:19;;;;;;;106.82;10.98;;;;;;;;;;4931653;28;20043;-86
2022/02/08 08:01:46;;;;;;;118.57;11.90;;;;;;;;;;4928918;28;20460;-86
2022/02/08 08:04:12;;;;;;;140.43;12.88;;;;;;;;;;4929957;28;20047;-86
2022/02/08 08:06:39;;;;;;;115.13;10.38;;;;;;;;;;4927448;29;20052;-85
2022/02/08 08:09:06;;;;;;;141.25;9.77;;;;;;;;;;4936204;28;20051;-83
2022/02/08 08:11:37;;;;;;;131.93;9.23;;;;;;;;;;4929954;29;20088;-85
2022/02/08 08:14:05;;;;;;;74.30;8.65;;;;;;;;;;4929364;28;20044;-85
2022/02/08 08:19:37;;;;;;;130.88;10.65;;;;;;;;;;4931363;28;20055;-85
2022/02/08 08:21:51;;;;;;;134.88;8.93;;;;;;;;;;4931906;28;20067;-86
2022/02/08 08:24:18;;;;;;;153.88;9.18;;;;;;;;;;4930382;28;20052;-85
2022/02/08 08:26:44;;;;;;;217.52;10.55;;;;;;;;;;4929397;28;20401;-85
2022/02/08 08:29:11;;;;;;;209.70;9.77;;;;;;;;;;4927562;29;20537;-84
2022/02/08 08:31:38;;;;;;;165.48;8.23;;;;;;;;;;4929352;29;20076;-84
2022/02/08 08:34:12;;;;;;;188.57;8.05;;;;;;;;;;4929324;29;20064;-85
2022/02/08 08:36:40;;;;;;;107.97;7.45;;;;;;;;;;4931650;28;20063;-85
2022/02/08 08:39:08;;;;;;;61.08;5.80;;;;;;;;;;4928732;28;20071;-84
2022/02/08 08:51:57;;;;;;;9.98;3.00;;;;;;;;;;4936042;28;20527;-86
2022/02/08 08:54:27;;;;;;;4.15;3.08;;;;;;;;;;4935219;28;20042;-84
2022/02/08 08:56:54;;;;;;;5.13;2.85;;;;;;;;;;4933203;29;20461;-84
2022/02/08 08:59:21;;;;;;;5.35;2.92;;;;;;;;;;4923997;28;20440;-85
2022/02/08 09:01:51;;;;;;;4.07;2.78;;;;;;;;;;4922109;29;20129;-85
2022/02/08 09:04:19;;;;;;;7.30;3.40;;;;;;;;;;4933236;28;20055;-85
2022/02/08 09:06:50;;;;;;;5.28;2.88;;;;;;;;;;4936477;28;20135;-85
2022/02/08 09:09:20;;;;;;;3.85;2.72;;;;;;;;;;4942264;28;20051;-84
2022/02/08 09:12:15;;;;;;;4.80;2.95;;;;;;;;;;4934596;29;20075;-83
2022/02/08 09:17:41;;;;;;;3.53;2.65;;;;;;;;;;4931677;28;20544;-85
2022/02/08 09:30:51;;;;;;;3.80;2.38;;;;;;;;;;4930857;28;20052;-85
2022/02/08 09:33:18;;;;;;;9.05;2.63;;;;;;;;;;4933533;28;20056;-85
2022/02/08 09:35:46;;;;;;;2.75;1.83;;;;;;;;;;4931790;28;20130;-86
2022/02/08 09:38:13;;;;;;;4.40;1.70;;;;;;;;;;4931449;28;20056;-84
2022/02/08 09:40:40;;;;;;;3.67;1.80;;;;;;;;;;4929759;29;20324;-85
2022/02/08 09:43:10;;;;;;;3.58;2.00;;;;;;;;;;4932068;28;20075;-86
2022/02/08 09:45:37;;;;;;;4.35;2.15;;;;;;;;;;4933881;28;20055;-85
2022/02/08 09:48:16;;;;;;;4.68;1.90;;;;;;;;;;4929922;28;20074;-85
2022/02/08 09:50:42;;;;;;;4.75;2.15;;;;;;;;;;4931573;29;20056;-82
2022/02/08 09:53:14;;;;;;;2.60;1.60;;;;;;;;;;4929872;29;20052;-84
2022/02/08 09:55:43;;;;;;;2.08;0.90;;;;;;;;;;4931283;29;20142;-85
2022/02/08 09:58:10;;;;;;;1.40;0.77;;;;;;;;;;4932984;28;20051;-84
2022/02/08 10:00:38;;;;;;;1.42;0.70;;;;;;;;;;4931863;28;20063;-85
2022/02/08 10:03:06;;;;;;;2.60;1.17;;;;;;;;;;4930648;28;20044;-83
2022/02/08 10:05:43;;;;;;;3.80;1.00;;;;;;;;;;4931106;29;20107;-84
2022/02/08 10:08:10;;;;;;;2.38;0.70;;;;;;;;;;4932450;28;20461;-85
2022/02/08 10:10:37;;;;;;;1.30;0.60;;;;;;;;;;4943125;29;20473;-84
2022/02/08 10:24:05;;;;;;;1.40;0.60;;;;;;;;;;4931678;28;20539;-83
2022/02/08 10:29:35;;;;;;;2.50;0.75;;;;;;;;;;4930051;28;20043;-82
2022/02/08 10:37:46;;;;;;;2.45;0.52;;;;;;;;;;4918239;28;20052;-84
2022/02/08 10:40:19;;;;;;;2.53;0.80;;;;;;;;;;4930048;29;20420;-84
2022/02/08 10:42:57;;;;;;;0.73;0.43;;;;;;;;;;4933696;29;20055;-84
2022/02/08 10:45:27;;;;;;;1.15;0.50;;;;;;;;;;4932604;28;20075;-84
2022/02/08 10:48:02;;;;;;;0.93;0.30;;;;;;;;;;4931835;29;20512;-84
2022/02/08 10:50:32;;;;;;;1.25;0.35;;;;;;;;;;4930044;28;20924;-85
2022/02/08 10:53:02;;;;;;;1.63;0.68;;;;;;;;;;4926598;28;20107;-84
2022/02/08 11:00:45;;;;;;;2.33;0.60;;;;;;;;;;4930500;28;20106;-84
2022/02/08 11:03:18;;;;;;;1.35;0.57;;;;;;;;;;4928839;28;20062;-84
2022/02/08 11:14:15;;;;;;;0.40;0.30;;;;;;;;;;4928958;28;20978;-83
2022/02/08 11:25:23;;;;;;;1.60;0.43;;;;;;;;;;4927864;28;20078;-86
2022/02/08 11:27:58;;;;;;;2.08;0.90;;;;;;;;;;4927520;29;20063;-87
2022/02/08 11:30:30;;;;;;;1.02;0.65;;;;;;;;;;4926778;29;21857;-86
2022/02/08 11:33:32;;;;;;;0.55;0.40;;;;;;;;;;4925610;28;20051;-86
2022/02/08 11:50:44;;;;;;;2.35;0.90;;;;;;;;;;4927360;28;20118;-86
2022/02/08 11:53:19;;;;;;;1.98;0.90;;;;;;;;;;4927863;28;20448;-87
2022/02/08 12:04:37;;;;;;;1.92;1.52;;;;;;;;;;4886739;29;20064;-86
2022/02/08 12:07:08;;;;;;;1.92;0.88;;;;;;;;;;4887875;29;20056;-86
2022/02/08 12:10:02;;;;;;;4.30;1.10;;;;;;;;;;4887548;29;20514;-86
2022/02/08 12:31:57;;;;;;;1.45;0.70;;;;;;;;;;4880466;29;20449;-85
2022/02/08 13:02:13;;;;;;;0.55;0.20;;;;;;;;;;4932521;28;20484;-84
2022/02/08 14:07:42;;;;;;;0.28;0.22;;;;;;;;;;4933385;28;20052;-86
2022/02/08 14:10:22;;;;;;;0.80;0.80;;;;;;;;;;4947684;28;20102;-86
2022/02/08 15:07:57;;;;;;;1.42;1.00;;;;;;;;;;4932970;28;20110;-87
2022/02/08 15:09:43;;;;;;;0.52;0.30;;;;;;;;;;4937572;28;20047;-85
2022/02/08 15:12:16;;;;;;;0.20;0.10;;;;;;;;;;4933430;28;20107;-85
2022/02/08 15:14:53;;;;;;;0.52;0.22;;;;;;;;;;4930815;29;20048;-86
2022/02/08 15:17:21;;;;;;;3.13;1.08;;;;;;;;;;4925941;28;20044;-85
2022/02/08 15:19:50;;;;;;;1.38;1.25;;;;;;;;;;4930690;28;20047;-86
2022/02/08 15:22:18;;;;;;;1.73;0.70;;;;;;;;;;4930558;28;20521;-85
2022/02/08 15:24:45;;;;;;;1.92;0.90;;;;;;;;;;4932601;29;20078;-85
2022/02/08 15:27:13;;;;;;;1.42;0.43;;;;;;;;;;4929188;28;20644;-85
2022/02/08 15:29:40;;;;;;;1.30;0.90;;;;;;;;;;4929919;28;20052;-85
2022/02/08 15:32:13;;;;;;;0.70;0.60;;;;;;;;;;4929351;28;20052;-85
2022/02/08 15:34:42;;;;;;;1.05;0.40;;;;;;;;;;4929855;28;20051;-85
2022/02/08 15:37:09;;;;;;;;;;;;;;;;;;4932182;28;20043;-86
2022/02/08 15:39:36;;;;;;;11.00;4.25;;;;;;;;;;4931185;28;19923;-86
2022/02/08 15:42:04;;;;;;;5.40;3.17;;;;;;;;;;4932584;28;20588;-86
2022/02/08 15:44:32;;;;;;;1.38;0.90;;;;;;;;;;4928436;29;20114;-86
2022/02/08 15:47:04;;;;;;;2.40;2.05;;;;;;;;;;4932100;28;20051;-86
2022/02/08 15:49:33;;;;;;;1.30;0.50;;;;;;;;;;4929273;28;20056;-86
2022/02/08 15:52:15;;;;;;;;;;;;;;;;;;4931917;29;20082;-86
2022/02/08 15:54:46;;;;;;;0.60;0.60;;;;;;;;;;4931689;29;19922;-86
2022/02/08 16:07:28;;;;;;;0.40;0.40;;;;;;;;;;4929350;28;20548;-86
2022/02/08 16:15:20;;;;;;;1.00;0.80;;;;;;;;;;4931014;29;20069;-86
2022/02/08 16:20:33;;;;;;;1.60;1.15;;;;;;;;;;4928598;28;20071;-85
2022/02/08 16:57:58;;;;;;;7.72;2.60;;;;;;;;;;4928740;28;19962;-85
2022/02/08 17:00:28;;;;;;;5.97;3.70;;;;;;;;;;4927532;28;20047;-85
2022/02/08 17:03:13;;;;;;;5.20;3.53;;;;;;;;;;4927329;28;20055;-85
2022/02/08 17:05:39;;;;;;;2.80;2.40;;;;;;;;;;4927516;28;20060;-85
2022/02/08 17:08:11;;;;;;;3.25;2.15;;;;;;;;;;4927253;28;20572;-86
2022/02/08 17:10:42;;;;;;;4.90;3.22;;;;;;;;;;4932076;28;20055;-86
2022/02/08 17:13:19;;;;;;;1.83;1.58;;;;;;;;;;4932379;28;20059;-86
2022/02/08 17:16:02;;;;;;;3.35;1.88;;;;;;;;;;4930933;29;20082;-87
2022/02/08 17:48:33;;;;;;;3.95;3.28;;;;;;;;;;4889795;29;20406;-86
2022/02/08 17:50:59;;;;;;;6.22;4.82;;;;;;;;;;4887079;29;20104;-86
2022/02/08 17:53:26;;;;;;;4.47;3.90;;;;;;;;;;4887825;29;20100;-86
2022/02/08 17:55:52;;;;;;;4.40;4.00;;;;;;;;;;4887265;29;20474;-86
2022/02/08 17:58:20;;;;;;;4.40;3.60;;;;;;;;;;4886641;29;20052;-86
2022/02/08 18:00:48;;;;;;;3.63;3.10;;;;;;;;;;4890077;29;20152;-86
2022/02/08 18:03:16;;;;;;;3.45;2.95;;;;;;;;;;4887106;29;20053;-84
2022/02/08 18:05:44;;;;;;;9.55;6.70;;;;;;;;;;4871610;29;20253;-86
2022/02/08 18:08:13;;;;;;;5.47;4.07;;;;;;;;;;4886826;29;20048;-86
2022/02/08 18:10:43;;;;;;;5.32;4.82;;;;;;;;;;4885870;29;20526;-85
2022/02/08 18:13:14;;;;;;;11.60;9.25;;;;;;;;;;4887443;29;20139;-86
2022/02/08 18:15:42;;;;;;;20.85;14.52;;;;;;;;;;4888887;29;20044;-86
2022/02/08 18:18:20;;;;;;;7.38;4.65;;;;;;;;;;4885595;29;20053;-85
2022/02/08 18:20:54;;;;;;;3.65;3.10;;;;;;;;;;4884899;29;20065;-86
2022/02/08 19:12:09;;;;;;;6.43;3.67;;;;;;;;;;4888147;29;20059;-86
2022/02/08 19:22:05;;;;;;;42.30;19.67;;;;;;;;;;4888724;29;20660;-86
2022/02/08 19:24:33;;;;;;;8.98;7.85;;;;;;;;;;4890734;29;20048;-87
2022/02/08 19:27:01;;;;;;;5.40;4.72;;;;;;;;;;4873019;29;20602;-87
2022/02/08 19:29:33;;;;;;;11.45;8.88;;;;;;;;;;4887708;29;20052;-87
2022/02/08 19:32:00;;;;;;;6.60;4.82;;;;;;;;;;4887587;29;20399;-86
2022/02/08 19:34:27;;;;;;;7.05;5.68;;;;;;;;;;4887548;29;20048;-87
2022/02/08 19:36:57;;;;;;;5.40;3.63;;;;;;;;;;4888783;29;20116;-86
2022/02/08 19:39:24;;;;;;;4.63;3.88;;;;;;;;;;4892190;29;20580;-86
2022/02/08 19:41:50;;;;;;;6.63;4.88;;;;;;;;;;4928424;28;20062;-86
2022/02/08 19:44:17;;;;;;;7.88;6.40;;;;;;;;;;4927004;28;20048;-86
2022/02/08 19:46:44;;;;;;;7.57;5.53;;;;;;;;;;4927476;29;20070;-86
2022/02/08 19:49:12;;;;;;;48.63;30.65;;;;;;;;;;4927927;28;20052;-85
2022/02/08 19:51:40;;;;;;;9.48;7.35;;;;;;;;;;4928802;28;20063;-85
2022/02/08 19:54:11;;;;;;;7.20;6.00;;;;;;;;;;4927603;28;20122;-86
2022/02/08 19:56:51;;;;;;;4.38;2.55;;;;;;;;;;4928390;28;20047;-86
2022/02/08 19:59:30;;;;;;;4.78;3.60;;;;;;;;;;4928109;28;20103;-86
2022/02/08 20:01:59;;;;;;;4.28;3.50;;;;;;;;;;4926699;29;20107;-86
2022/02/08 20:04:26;;;;;;;3.30;3.00;;;;;;;;;;4927625;29;20087;-87
2022/02/08 20:06:57;;;;;;;2.92;2.10;;;;;;;;;;4929277;28;20099;-85
2022/02/08 20:09:25;;;;;;;3.70;2.10;;;;;;;;;;4927743;28;20698;-85
2022/02/08 20:11:53;;;;;;;3.78;2.67;;;;;;;;;;4927434;28;20055;-86
2022/02/08 20:14:40;;;;;;;5.47;3.70;;;;;;;;;;4927754;28;20151;-86
2022/02/08 20:17:07;;;;;;;3.15;2.40;;;;;;;;;;4927048;28;20047;-85
2022/02/08 20:19:34;;;;;;;8.27;5.10;;;;;;;;;;4927048;29;20059;-85
2022/02/08 20:22:05;;;;;;;5.80;4.72;;;;;;;;;;4928287;28;20455;-85
2022/02/08 20:24:32;;;;;;;6.20;5.28;;;;;;;;;;4927092;29;20126;-85
2022/02/08 20:29:38;;;;;;;4.97;3.50;;;;;;;;;;4928026;28;20063;-85
2022/02/08 20:32:05;;;;;;;5.57;4.90;;;;;;;;;;4927205;28;20055;-85
2022/02/08 20:34:32;;;;;;;13.25;9.25;;;;;;;;;;4927011;29;20587;-86
2022/02/08 20:36:59;;;;;;;8.57;7.60;;;;;;;;;;4926818;29;20051;-85
2022/02/08 20:39:27;;;;;;;10.43;9.43;;;;;;;;;;4927211;28;20088;-85
2022/02/08 20:41:55;;;;;;;9.68;8.38;;;;;;;;;;4928082;28;20182;-85
2022/02/08 20:44:24;;;;;;;12.65;10.77;;;;;;;;;;4929153;28;20048;-86
2022/02/08 20:47:12;;;;;;;9.57;8.07;;;;;;;;;;4931307;28;20114;-85
2022/02/08 20:49:39;;;;;;;4.28;3.70;;;;;;;;;;4930413;28;20051;-86
2022/02/08 20:52:06;;;;;;;7.47;6.63;;;;;;;;;;4928107;28;20083;-85
2022/02/08 20:54:38;;;;;;;5.55;4.28;;;;;;;;;;4932020;28;20614;-85
2022/02/08 20:57:12;;;;;;;5.80;5.30;;;;;;;;;;4931030;28;20767;-85
2022/02/08 20:59:39;;;;;;;8.15;6.20;;;;;;;;;;4931537;28;20079;-86
2022/02/08 21:02:18;;;;;;;9.77;7.45;;;;;;;;;;4929034;28;20131;-86
2022/02/08 21:05:28;;;;;;;6.32;5.40;;;;;;;;;;4929661;29;20052;-85
2022/02/08 21:07:49;;;;;;;7.32;5.38;;;;;;;;;;4929959;28;20130;-85
2022/02/08 21:10:16;;;;;;;10.25;7.30;;;;;;;;;;4929532;28;20558;-85
2022/02/08 21:13:00;;;;;;;6.00;5.32;;;;;;;;;;4932075;28;20048;-84
2022/02/08 21:15:29;;;;;;;5.00;4.20;;;;;;;;;;4933327;28;20067;-85
2022/02/08 21:17:57;;;;;;;7.60;6.93;;;;;;;;;;4932942;29;20090;-85
2022/02/08 21:20:24;;;;;;;4.13;2.88;;;;;;;;;;4933283;28;20071;-85
2022/02/08 21:22:50;;;;;;;3.92;3.17;;;;;;;;;;4934408;29;20047;-85
2022/02/08 21:25:17;;;;;;;5.45;3.22;;;;;;;;;;4933094;28;20525;-84
2022/02/08 21:27:52;;;;;;;3.35;1.48;;;;;;;;;;4933976;29;20410;-84
2022/02/08 21:31:29;;;;;;;1.55;1.38;;;;;;;;;;4932627;28;20055;-84
2022/02/08 21:43:31;;;;;;;5.22;3.63;;;;;;;;;;4931692;28;20858;-85
2022/02/08 21:45:12;;;;;;;5.90;4.72;;;;;;;;;;4931184;28;20555;-84
2022/02/08 21:49:46;;;;;;;4.40;3.38;;;;;;;;;;4931743;28;20060;-84
2022/02/08 21:54:46;;;;;;;5.45;3.88;;;;;;;;;;4934207;28;20584;-83
2022/02/08 21:57:17;;;;;;;6.20;3.67;;;;;;;;;;4930700;29;20066;-84
2022/02/08 21:59:44;;;;;;;10.73;6.72;;;;;;;;;;4931219;28;20106;-85
2022/02/08 22:02:12;;;;;;;9.60;6.30;;;;;;;;;;4931046;28;20048;-85
2022/02/08 22:04:40;;;;;;;4.43;3.38;;;;;;;;;;4929967;29;20545;-84
2022/02/08 22:07:13;;;;;;;3.50;2.70;;;;;;;;;;4932936;29;20083;-84
2022/02/08 22:09:41;;;;;;;6.85;4.90;;;;;;;;;;4933420;28;20919;-85
2022/02/08 22:23:16;;;;;;;6.72;5.00;;;;;;;;;;4911185;29;20052;-84
2022/02/08 22:31:10;;;;;;;3.35;2.50;;;;;;;;;;4891162;29;20052;-83
2022/02/08 22:33:43;;;;;;;4.68;2.67;;;;;;;;;;4910648;29;20056;-84
2022/02/08 22:36:18;;;;;;;3.88;3.10;;;;;;;;;;4894665;29;20078;-84
2022/02/08 22:38:57;;;;;;;4.40;3.35;;;;;;;;;;4910919;29;20044;-84
2022/02/08 22:41:29;;;;;;;;;;;;;;;;;;4911052;29;20088;-84
2022/02/08 22:44:04;;;;;;;2.85;2.40;;;;;;;;;;4909374;29;19962;-85
2022/02/08 22:46:31;;;;;;;4.78;2.83;;;;;;;;;;4896216;29;20163;-85
2022/02/08 22:48:57;;;;;;;5.40;3.45;;;;;;;;;;4912174;29;20068;-85
2022/02/08 22:51:24;;;;;;;3.75;3.33;;;;;;;;;;4911025;29;20139;-85
2022/02/08 22:53:50;;;;;;;3.63;3.00;;;;;;;;;;4910757;29;20075;-85
2022/02/08 22:56:17;;;;;;;9.52;3.97;;;;;;;;;;4910252;29;20083;-86
2022/02/08 22:58:44;;;;;;;5.93;4.45;;;;;;;;;;4910715;29;20048;-85
